createdAt,value
2019-05-30T00:01:14.972Z,59.08
2019-05-30T00:03:43.864Z,58.83
2019-05-30T00:06:12.771Z,59.25
2019-05-30T00:08:41.787Z,59.77
2019-05-30T00:11:10.595Z,59.99
2019-05-30T00:13:39.510Z,59.84
2019-05-30T00:16:08.432Z,59.81
2019-05-30T00:18:37.343Z,60.02
2019-05-30T00:21:06.247Z,60.13
2019-05-30T00:23:35.163Z,60.11
2019-05-30T00:26:04.083Z,60.18
2019-05-30T00:28:33.009Z,59.98
2019-05-30T00:31:02.562Z,59.99
2019-05-30T00:33:30.851Z,59.82
2019-05-30T00:35:59.924Z,60.60
2019-05-30T00:38:28.648Z,60.44
2019-05-30T00:40:57.814Z,60.19
2019-05-30T00:43:26.476Z,59.75
2019-05-30T00:45:55.889Z,59.80
2019-05-30T00:48:24.303Z,59.88
2019-05-30T00:50:53.234Z,59.98
2019-05-30T00:53:22.135Z,60.06
2019-05-30T00:55:51.076Z,59.88
2019-05-30T00:58:20.024Z,60.28
2019-05-30T01:00:48.937Z,60.11
2019-05-30T01:03:17.850Z,60.14
2019-05-30T01:05:46.780Z,59.97
2019-05-30T01:08:15.699Z,59.84
2019-05-30T01:10:44.591Z,60.16
2019-05-30T01:13:13.516Z,60.14
2019-05-30T01:15:42.441Z,60.21
2019-05-30T01:18:11.362Z,60.42
2019-05-30T01:20:40.277Z,60.19
2019-05-30T01:23:09.233Z,60.36
2019-05-30T01:25:38.136Z,60.25
2019-05-30T01:28:07.877Z,60.31
2019-05-30T01:30:36.002Z,60.60
2019-05-30T01:33:05.883Z,60.76
2019-05-30T01:35:33.872Z,60.55
2019-05-30T01:38:03.954Z,60.60
2019-05-30T01:40:31.795Z,60.50
2019-05-30T01:43:01.974Z,61.07
2019-05-30T01:45:29.565Z,61.10
2019-05-30T01:47:58.472Z,60.52
2019-05-30T01:50:27.421Z,60.93
2019-05-30T01:52:56.322Z,61.10
2019-05-30T01:55:25.238Z,61.47
2019-05-30T01:57:54.137Z,61.38
2019-05-30T02:00:23.645Z,61.18
2019-05-30T02:02:52.563Z,60.94
2019-05-30T02:05:21.492Z,61.31
2019-05-30T02:07:50.388Z,61.04
2019-05-30T02:10:19.313Z,61.04
2019-05-30T02:12:48.207Z,60.90
2019-05-30T02:15:17.280Z,61.18
2019-05-30T02:17:46.211Z,61.87
2019-05-30T02:20:15.107Z,61.68
2019-05-30T02:22:44.053Z,61.53
2019-05-30T02:25:12.973Z,61.86
2019-05-30T02:27:41.874Z,60.70
2019-05-30T02:30:14.297Z,61.42
2019-05-30T02:32:39.745Z,61.15
2019-05-30T02:35:12.156Z,61.52
2019-05-30T02:37:37.612Z,62.12
2019-05-30T02:40:09.913Z,62.32
2019-05-30T02:42:35.536Z,62.19
2019-05-30T02:45:05.743Z,62.28
2019-05-30T02:47:33.452Z,62.40
2019-05-30T02:50:04.036Z,62.70
2019-05-30T02:52:31.316Z,62.62
2019-05-30T02:55:01.804Z,63.28
2019-05-30T02:57:29.105Z,62.92
2019-05-30T02:59:58.020Z,63.57
2019-05-30T03:02:27.000Z,63.60
2019-05-30T03:04:55.835Z,62.85
2019-05-30T03:07:24.769Z,64.10
2019-05-30T03:09:53.651Z,64.19
2019-05-30T03:12:22.562Z,64.15
2019-05-30T03:14:51.441Z,64.94
2019-05-30T03:17:20.358Z,65.57
2019-05-30T03:19:49.278Z,65.16
2019-05-30T03:22:18.185Z,65.75
2019-05-30T03:24:47.069Z,66.01
2019-05-30T03:27:15.996Z,65.36
2019-05-30T03:29:44.885Z,65.65
2019-05-30T03:33:00.722Z,66.34
2019-05-30T03:34:42.706Z,67.76
2019-05-30T03:37:23.064Z,67.84
2019-05-30T03:39:40.505Z,67.46
2019-05-30T03:42:11.309Z,67.08
2019-05-30T03:44:38.320Z,67.48
2019-05-30T03:47:08.576Z,67.47
2019-05-30T03:49:36.434Z,68.14
2019-05-30T03:52:08.147Z,68.06
2019-05-30T03:54:34.434Z,68.12
2019-05-30T03:57:11.097Z,69.67
2019-05-30T03:59:41.061Z,69.77
2019-05-30T04:02:18.983Z,68.56
2019-05-30T04:04:48.551Z,69.83
2019-05-30T04:07:19.455Z,70.52
2019-05-30T04:09:46.525Z,69.63
2019-05-30T04:12:36.233Z,72.03
2019-05-30T04:15:07.974Z,75.51
2019-05-30T04:17:35.247Z,76.26
2019-05-30T04:20:07.006Z,78.90
2019-05-30T04:22:34.170Z,78.71
2019-05-30T04:25:03.133Z,79.76
2019-05-30T04:27:32.015Z,81.34
2019-05-30T04:30:00.916Z,82.47
2019-05-30T04:32:29.822Z,82.54
2019-05-30T04:34:58.730Z,83.10
2019-05-30T04:37:27.638Z,83.18
2019-05-30T04:39:56.531Z,83.23
2019-05-30T04:42:25.434Z,84.70
2019-05-30T04:44:54.312Z,83.90
2019-05-30T04:47:23.232Z,84.57
2019-05-30T04:49:52.125Z,84.91
2019-05-30T04:52:24.582Z,84.31
2019-05-30T04:54:49.946Z,84.81
2019-05-30T04:57:19.989Z,85.48
2019-05-30T04:59:47.733Z,84.45
2019-05-30T05:02:18.775Z,85.92
2019-05-30T05:04:45.522Z,85.87
2019-05-30T05:07:15.669Z,86.44
2019-05-30T05:09:43.338Z,86.67
2019-05-30T05:12:12.258Z,87.30
2019-05-30T05:14:41.160Z,87.81
2019-05-30T05:17:10.483Z,87.02
2019-05-30T05:19:39.391Z,87.75
2019-05-30T05:22:08.467Z,88.21
2019-05-30T05:24:37.360Z,87.97
2019-05-30T05:27:09.754Z,87.71
2019-05-30T05:29:35.358Z,87.55
2019-05-30T05:32:04.332Z,88.13
2019-05-30T05:34:33.236Z,88.60
2019-05-30T05:37:02.163Z,89.05
2019-05-30T05:39:31.054Z,89.06
2019-05-30T05:41:59.965Z,87.78
2019-05-30T05:44:28.870Z,88.16
2019-05-30T05:46:57.772Z,88.43
2019-05-30T05:49:26.656Z,88.29
2019-05-30T05:51:55.597Z,88.37
2019-05-30T05:54:25.013Z,88.81
2019-05-30T05:56:53.406Z,88.83
2019-05-30T05:59:23.017Z,87.80
2019-05-30T06:01:51.219Z,86.14
2019-05-30T06:04:21.123Z,87.93
2019-05-30T06:06:49.022Z,87.93
2019-05-30T06:09:18.354Z,87.32
2019-05-30T06:11:49.045Z,88.05
2019-05-30T06:14:15.730Z,88.24
2019-05-30T06:16:44.648Z,88.93
2019-05-30T06:19:13.546Z,89.06
2019-05-30T06:21:53.604Z,88.79
2019-05-30T06:24:11.410Z,88.60
2019-05-30T06:26:40.342Z,89.17
2019-05-30T06:29:09.267Z,88.90
2019-05-30T06:31:38.173Z,88.62
2019-05-30T06:34:07.310Z,88.91
2019-05-30T06:36:36.193Z,89.90
2019-05-30T06:39:08.053Z,90.05
2019-05-30T06:41:36.948Z,91.32
2019-05-30T06:44:06.061Z,91.50
2019-05-30T06:46:34.937Z,90.98
2019-05-30T06:49:03.913Z,91.11
2019-05-30T06:51:32.846Z,90.71
2019-05-30T06:54:01.757Z,90.89
2019-05-30T06:56:31.582Z,90.08
2019-05-30T06:58:59.547Z,90.08
2019-05-30T07:01:28.485Z,89.94
2019-05-30T07:03:57.537Z,90.93
2019-05-30T07:06:27.474Z,91.32
2019-05-30T07:08:55.180Z,91.11
2019-05-30T07:11:24.725Z,91.66
2019-05-30T07:13:53.013Z,92.88
2019-05-30T07:16:23.290Z,92.54
2019-05-30T07:18:50.833Z,91.89
2019-05-30T07:21:19.751Z,91.97
2019-05-30T07:23:48.643Z,91.68
2019-05-30T07:26:17.560Z,92.58
2019-05-30T07:28:46.450Z,91.86
2019-05-30T07:31:15.358Z,92.03
2019-05-30T07:33:44.279Z,92.44
2019-05-30T07:36:16.979Z,92.12
2019-05-30T07:38:49.063Z,92.17
2019-05-30T07:41:18.340Z,93.68
2019-05-30T07:43:47.554Z,90.63
2019-05-30T07:46:19.509Z,91.98
2019-05-30T07:48:51.176Z,91.88
2019-05-30T07:51:24.192Z,91.98
2019-05-30T07:53:51.903Z,92.17
2019-05-30T07:56:22.822Z,91.03
2019-05-30T07:58:52.099Z,92.56
2019-05-30T08:01:22.062Z,92.05
2019-05-30T08:03:51.160Z,92.12
2019-05-30T08:06:22.552Z,89.56
2019-05-30T08:08:56.504Z,90.11
2019-05-30T08:11:23.288Z,90.92
2019-05-30T08:13:52.374Z,90.56
2019-05-30T08:16:21.552Z,90.96
2019-05-30T08:18:50.502Z,90.55
2019-05-30T08:21:20.589Z,90.31
2019-05-30T08:23:52.264Z,90.71
2019-05-30T08:26:21.557Z,90.84
2019-05-30T08:28:55.254Z,91.14
2019-05-30T08:34:10.784Z,91.03
2019-05-30T08:36:40.205Z,91.19
2019-05-30T08:39:09.722Z,91.12
2019-05-30T08:41:39.506Z,90.59
2019-05-30T08:44:08.514Z,90.52
2019-05-30T08:46:46.595Z,90.31
2019-05-30T08:49:15.756Z,91.16
2019-05-30T08:51:47.673Z,90.87
2019-05-30T08:54:16.771Z,90.28
2019-05-30T08:56:50.815Z,89.55
2019-05-30T08:59:20.925Z,89.09
2019-05-30T09:01:53.337Z,89.28
2019-05-30T09:04:21.958Z,89.28
2019-05-30T09:06:51.353Z,88.67
2019-05-30T09:09:22.720Z,88.88
2019-05-30T09:11:52.005Z,87.23
2019-05-30T09:14:21.329Z,88.48
2019-05-30T09:16:51.151Z,86.78
2019-05-30T09:19:22.176Z,87.00
2019-05-30T09:21:49.288Z,87.01
2019-05-30T09:24:18.572Z,87.62
2019-05-30T09:26:50.312Z,87.55
2019-05-30T09:29:16.914Z,87.95
2019-05-30T09:31:48.748Z,87.69
2019-05-30T09:34:18.040Z,85.14
2019-05-30T09:36:47.212Z,87.15
2019-05-30T09:39:19.385Z,86.83
2019-05-30T09:41:48.009Z,86.62
2019-05-30T09:44:14.769Z,87.85
2019-05-30T09:46:44.307Z,87.63
2019-05-30T09:49:16.453Z,87.49
2019-05-30T09:51:45.230Z,87.31
2019-05-30T09:54:17.041Z,87.65
2019-05-30T09:56:48.554Z,86.74
2019-05-30T09:59:19.827Z,86.88
2019-05-30T10:01:50.159Z,85.79
2019-05-30T10:04:19.170Z,86.43
2019-05-30T10:06:53.908Z,86.70
2019-05-30T10:09:24.893Z,85.91
2019-05-30T10:11:59.989Z,85.69
2019-05-30T10:14:29.386Z,85.24
2019-05-30T10:16:58.380Z,84.80
2019-05-30T10:19:27.594Z,84.55
2019-05-30T10:21:57.282Z,83.74
2019-05-30T10:24:28.407Z,83.19
2019-05-30T10:26:59.861Z,82.73
2019-05-30T10:29:27.265Z,82.19
2019-05-30T10:31:56.967Z,82.47
2019-05-30T10:34:36.107Z,82.32
2019-05-30T10:37:05.369Z,81.55
2019-05-30T10:39:34.691Z,81.21
2019-05-30T10:42:06.668Z,80.57
2019-05-30T10:44:35.806Z,80.48
2019-05-30T10:47:04.971Z,80.04
2019-05-30T10:49:35.338Z,80.34
2019-05-30T10:52:05.749Z,80.05
2019-05-30T10:54:34.800Z,80.17
2019-05-30T10:57:03.905Z,79.95
2019-05-30T10:59:33.007Z,78.39
2019-05-30T11:02:07.198Z,79.07
2019-05-30T11:04:34.237Z,79.26
2019-05-30T11:07:22.841Z,80.17
2019-05-30T11:09:54.832Z,79.70
2019-05-30T11:12:23.832Z,79.36
2019-05-30T11:14:53.757Z,79.52
2019-05-30T11:17:22.798Z,79.76
2019-05-30T11:19:52.062Z,80.01
2019-05-30T11:22:21.096Z,80.33
2019-05-30T11:24:50.346Z,80.48
2019-05-30T11:27:19.203Z,80.47
2019-05-30T11:29:48.713Z,80.28
2019-05-30T11:32:19.893Z,80.78
2019-05-30T11:34:51.541Z,79.51
2019-05-30T11:37:23.097Z,77.51
2019-05-30T11:39:51.046Z,78.24
2019-05-30T11:42:19.668Z,77.97
2019-05-30T11:44:49.709Z,78.02
2019-05-30T11:47:18.668Z,77.81
2019-05-30T11:49:48.040Z,78.20
2019-05-30T11:52:19.499Z,75.62
2019-05-30T11:54:46.720Z,76.70
2019-05-30T11:57:17.799Z,77.45
2019-05-30T11:59:46.898Z,77.72
2019-05-30T12:02:16.268Z,79.00
2019-05-30T12:04:45.525Z,78.87
2019-05-30T12:07:14.776Z,80.43
2019-05-30T12:09:43.909Z,80.00
2019-05-30T12:12:13.375Z,79.78
2019-05-30T12:14:42.790Z,79.60
2019-05-30T12:17:11.912Z,79.34
2019-05-30T12:19:41.067Z,79.02
2019-05-30T12:22:12.159Z,79.20
2019-05-30T12:24:41.527Z,78.75
2019-05-30T12:27:10.717Z,77.26
2019-05-30T12:29:42.547Z,76.95
2019-05-30T12:32:12.182Z,76.35
2019-05-30T12:34:41.390Z,75.75
2019-05-30T12:37:10.471Z,75.37
2019-05-30T12:39:39.478Z,74.69
2019-05-30T12:42:11.433Z,74.46
2019-05-30T12:44:41.486Z,73.59
2019-05-30T12:47:10.757Z,73.99
2019-05-30T12:49:39.921Z,74.78
2019-05-30T12:52:11.700Z,73.74
2019-05-30T12:54:40.996Z,73.07
2019-05-30T12:57:10.091Z,71.96
2019-05-30T12:59:39.386Z,70.67
2019-05-30T13:02:11.331Z,70.73
2019-05-30T13:04:46.046Z,70.58
2019-05-30T13:07:17.390Z,70.96
2019-05-30T13:09:46.698Z,73.19
2019-05-30T13:12:18.304Z,72.78
2019-05-30T13:14:50.098Z,73.42
2019-05-30T13:17:19.279Z,72.41
2019-05-30T13:19:48.499Z,71.25
2019-05-30T13:22:20.790Z,70.13
2019-05-30T13:24:49.953Z,69.48
2019-05-30T13:27:19.267Z,68.34
2019-05-30T13:29:48.659Z,66.83
2019-05-30T13:32:17.672Z,66.61
2019-05-30T13:34:46.945Z,64.32
2019-05-30T13:37:15.963Z,65.30
2019-05-30T13:39:45.313Z,64.69
2019-05-30T13:42:16.449Z,64.23
2019-05-30T13:44:45.656Z,64.95
2019-05-30T13:47:14.736Z,64.81
2019-05-30T13:49:43.911Z,63.92
2019-05-30T13:52:13.257Z,65.32
2019-05-30T13:54:42.414Z,65.01
2019-05-30T13:57:16.744Z,65.81
2019-05-30T13:59:48.374Z,64.08
2019-05-30T14:02:17.700Z,63.82
2019-05-30T14:04:47.296Z,63.96
2019-05-30T14:07:16.475Z,63.23
2019-05-30T14:09:45.620Z,61.23
2019-05-30T14:12:14.972Z,61.91
2019-05-30T14:14:44.237Z,61.72
2019-05-30T14:17:13.787Z,62.26
2019-05-30T14:19:43.215Z,62.25
2019-05-30T14:22:12.301Z,62.41
2019-05-30T14:24:45.988Z,62.56
2019-05-30T14:27:15.244Z,62.15
2019-05-30T14:29:44.415Z,62.13
2019-05-30T14:32:14.038Z,63.01
2019-05-30T14:34:43.210Z,62.88
2019-05-30T14:37:12.646Z,63.13
2019-05-30T14:39:41.476Z,63.03
2019-05-30T14:42:11.423Z,62.78
2019-05-30T14:44:40.665Z,62.65
2019-05-30T14:47:12.456Z,62.65
2019-05-30T14:49:41.163Z,62.42
2019-05-30T14:52:11.723Z,62.33
2019-05-30T14:54:42.763Z,62.42
2019-05-30T14:57:13.047Z,61.96
2019-05-30T14:59:41.455Z,62.79
2019-05-30T15:02:17.449Z,61.99
2019-05-30T15:04:48.397Z,61.95
2019-05-30T15:07:17.603Z,61.31
2019-05-30T15:09:46.713Z,61.54
2019-05-30T15:12:18.827Z,60.86
2019-05-30T15:14:47.912Z,60.25
2019-05-30T15:17:19.370Z,60.01
2019-05-30T15:19:48.952Z,59.69
2019-05-30T15:22:20.629Z,59.20
2019-05-30T15:24:52.548Z,58.65
2019-05-30T15:27:21.743Z,58.57
2019-05-30T15:29:51.960Z,58.84
2019-05-30T15:32:23.514Z,58.62
2019-05-30T15:34:52.633Z,58.62
2019-05-30T15:37:21.747Z,57.55
2019-05-30T15:39:50.934Z,56.39
2019-05-30T15:42:21.936Z,55.87
2019-05-30T15:44:58.466Z,56.29
2019-05-30T15:47:29.919Z,56.57
2019-05-30T15:50:01.062Z,56.91
2019-05-30T15:52:30.179Z,57.18
2019-05-30T15:54:59.417Z,57.35
2019-05-30T15:57:28.506Z,57.21
2019-05-30T16:00:04.068Z,56.54
2019-05-30T16:02:33.341Z,56.91
2019-05-30T16:05:02.518Z,56.18
2019-05-30T16:07:31.539Z,55.49
2019-05-30T16:10:02.119Z,55.97
2019-05-30T16:12:33.446Z,54.54
2019-05-30T16:15:04.827Z,55.28
2019-05-30T16:17:34.297Z,55.31
2019-05-30T16:20:03.481Z,54.90
2019-05-30T16:22:32.387Z,55.16
2019-05-30T16:25:01.314Z,55.78
2019-05-30T16:27:31.208Z,55.99
2019-05-30T16:29:59.113Z,56.45
2019-05-30T16:32:28.013Z,55.40
2019-05-30T16:34:56.919Z,56.14
2019-05-30T16:37:26.346Z,56.81
2019-05-30T16:40:05.468Z,55.32
2019-05-30T16:42:23.611Z,56.43
2019-05-30T16:44:52.515Z,56.81
2019-05-30T16:47:22.458Z,56.34
2019-05-30T16:49:50.309Z,56.35
2019-05-30T16:52:19.320Z,55.81
2019-05-30T16:54:48.097Z,55.55
2019-05-30T16:57:17.046Z,55.45
2019-05-30T16:59:45.931Z,55.80
2019-05-30T17:02:14.882Z,56.03
2019-05-30T17:04:43.755Z,56.37
2019-05-30T17:07:12.674Z,56.71
2019-05-30T17:09:41.587Z,57.13
2019-05-30T17:12:10.492Z,57.46
2019-05-30T17:14:39.391Z,57.62
2019-05-30T17:17:08.376Z,58.28
2019-05-30T17:19:39.268Z,58.07
2019-05-30T17:22:06.284Z,58.17
2019-05-30T17:24:35.167Z,57.29
2019-05-30T17:27:04.109Z,57.99
2019-05-30T17:29:32.986Z,57.89
2019-05-30T17:32:01.867Z,57.83
2019-05-30T17:34:30.769Z,57.61
2019-05-30T17:36:59.684Z,57.23
2019-05-30T17:39:28.914Z,56.94
2019-05-30T17:41:57.462Z,56.66
2019-05-30T17:44:27.201Z,57.08
2019-05-30T17:46:55.254Z,57.66
2019-05-30T17:49:24.145Z,57.55
2019-05-30T17:51:53.046Z,57.83
2019-05-30T17:54:21.921Z,57.15
2019-05-30T17:56:50.813Z,55.58
2019-05-30T17:59:20.194Z,55.33
2019-05-30T18:01:48.622Z,55.11
2019-05-30T18:04:17.496Z,55.09
2019-05-30T18:06:46.401Z,55.01
2019-05-30T18:09:15.313Z,54.79
2019-05-30T18:11:44.194Z,54.84
2019-05-30T18:14:13.104Z,55.52
2019-05-30T18:16:42.015Z,55.33
2019-05-30T18:19:10.957Z,56.00
2019-05-30T18:21:39.844Z,55.83
2019-05-30T18:24:08.775Z,56.30
2019-05-30T18:26:37.641Z,56.67
2019-05-30T18:29:06.666Z,56.87
2019-05-30T18:31:35.555Z,57.70
2019-05-30T18:34:04.486Z,57.90
2019-05-30T18:36:33.388Z,58.08
2019-05-30T18:39:02.298Z,58.54
2019-05-30T18:41:31.201Z,58.93
2019-05-30T18:44:00.071Z,59.01
2019-05-30T18:46:29.203Z,58.99
2019-05-30T18:48:57.848Z,59.45
2019-05-30T18:51:26.757Z,59.82
2019-05-30T18:53:55.656Z,59.06
2019-05-30T18:56:24.630Z,59.61
2019-05-30T18:58:53.442Z,59.79
2019-05-30T19:01:22.348Z,59.88
2019-05-30T19:03:51.277Z,60.08
2019-05-30T19:06:20.139Z,60.16
2019-05-30T19:08:49.002Z,60.40
2019-05-30T19:11:27.299Z,60.45
2019-05-30T19:13:46.828Z,60.45
2019-05-30T19:16:15.712Z,60.69
2019-05-30T19:18:44.583Z,60.73
2019-05-30T19:21:13.515Z,61.35
2019-05-30T19:23:42.418Z,61.41
2019-05-30T19:26:11.627Z,61.53
2019-05-30T19:28:40.225Z,61.76
2019-05-30T19:31:09.188Z,60.74
2019-05-30T19:33:38.085Z,61.06
2019-05-30T19:36:07.093Z,60.29
2019-05-30T19:38:36.010Z,59.76
2019-05-30T19:41:04.968Z,60.94
2019-05-30T19:43:33.883Z,61.25
2019-05-30T19:46:02.770Z,61.28
2019-05-30T19:48:32.255Z,61.82
2019-05-30T19:51:00.543Z,62.03
2019-05-30T19:53:30.696Z,62.25
2019-05-30T19:55:58.328Z,62.26
2019-05-30T19:58:27.222Z,62.25
2019-05-30T20:00:58.952Z,62.56
2019-05-30T20:03:36.480Z,62.58
2019-05-30T20:05:54.047Z,62.69
2019-05-30T20:08:22.886Z,62.87
2019-05-30T20:10:51.783Z,62.86
2019-05-30T20:13:20.683Z,63.03
2019-05-30T20:15:49.593Z,63.31
2019-05-30T20:18:18.491Z,63.52
2019-05-30T20:20:56.968Z,63.63
2019-05-30T20:23:16.271Z,64.03
2019-05-30T20:25:46.081Z,64.05
2019-05-30T20:28:14.046Z,64.34
2019-05-30T20:30:43.317Z,64.66
2019-05-30T20:33:11.830Z,65.07
2019-05-30T20:35:42.151Z,65.18
2019-05-30T20:38:09.824Z,65.43
2019-05-30T20:40:38.926Z,65.76
2019-05-30T20:43:07.616Z,65.80
2019-05-30T20:45:39.555Z,65.81
2019-05-30T20:48:05.401Z,65.97
2019-05-30T20:50:35.012Z,65.98
2019-05-30T20:53:03.209Z,66.07
2019-05-30T20:55:32.196Z,66.71
2019-05-30T20:58:01.001Z,66.74
2019-05-30T21:00:37.786Z,67.39
2019-05-30T21:03:05.651Z,67.01
2019-05-30T21:05:35.627Z,67.53
2019-05-30T21:08:05.803Z,66.29
2019-05-30T21:10:32.428Z,67.06
2019-05-30T21:13:01.559Z,67.45
2019-05-30T21:15:32.146Z,67.50
2019-05-30T21:18:01.023Z,67.47
2019-05-30T21:20:29.926Z,67.31
2019-05-30T21:22:58.819Z,67.31
2019-05-30T21:25:27.696Z,67.12
2019-05-30T21:27:56.598Z,67.23
2019-05-30T21:30:25.503Z,67.19
2019-05-30T21:32:54.563Z,67.16
2019-05-30T21:35:23.445Z,67.27
2019-05-30T21:37:52.293Z,67.05
2019-05-30T21:40:21.175Z,66.69
2019-05-30T21:43:04.852Z,66.72
2019-05-30T21:45:18.976Z,66.50
2019-05-30T21:47:48.933Z,66.41
2019-05-30T21:50:16.754Z,66.50
2019-05-30T21:52:46.311Z,66.26
2019-05-30T21:55:14.594Z,66.20
2019-05-30T21:57:43.926Z,65.96
2019-05-30T22:00:13.375Z,64.71
2019-05-30T22:02:42.327Z,65.33
2019-05-30T22:05:11.193Z,65.18
2019-05-30T22:07:40.924Z,65.69
2019-05-30T22:10:09.003Z,65.47
2019-05-30T22:12:37.891Z,65.87
2019-05-30T22:15:06.848Z,65.72
2019-05-30T22:17:35.731Z,65.71
2019-05-30T22:20:05.064Z,65.64
2019-05-30T22:22:33.955Z,65.52
2019-05-30T22:25:02.869Z,65.44
2019-05-30T22:27:31.768Z,65.35
2019-05-30T22:30:00.658Z,65.31
2019-05-30T22:32:29.561Z,65.29
2019-05-30T22:34:58.452Z,65.61
2019-05-30T22:37:27.331Z,65.50
2019-05-30T22:39:56.259Z,65.57
2019-05-30T22:42:25.137Z,65.84
2019-05-30T22:44:54.036Z,65.98
2019-05-30T22:47:22.913Z,66.39
2019-05-30T22:49:52.940Z,66.17
2019-05-30T22:52:20.713Z,66.10
2019-05-30T22:54:49.609Z,66.12
2019-05-30T22:57:18.479Z,66.02
2019-05-30T22:59:47.370Z,66.03
2019-05-30T23:02:16.273Z,65.87
2019-05-30T23:04:45.978Z,65.84
2019-05-30T23:07:14.057Z,65.81
2019-05-30T23:09:43.167Z,65.44
2019-05-30T23:12:12.057Z,65.80
2019-05-30T23:14:40.956Z,65.29
2019-05-30T23:17:09.886Z,65.49
2019-05-30T23:19:38.769Z,64.94
2019-05-30T23:22:07.672Z,64.86
2019-05-30T23:24:36.572Z,64.97
2019-05-30T23:27:08.254Z,64.67
2019-05-30T23:29:34.387Z,64.86
2019-05-30T23:32:03.308Z,65.07
2019-05-30T23:34:32.186Z,64.76
2019-05-30T23:37:01.101Z,64.91
2019-05-30T23:39:30.019Z,64.84
2019-05-30T23:41:59.332Z,64.65
2019-05-30T23:44:27.841Z,64.64
2019-05-30T23:46:57.838Z,64.36
2019-05-30T23:49:25.634Z,64.48
2019-05-30T23:51:54.753Z,64.28
2019-05-30T23:54:23.438Z,64.12
2019-05-30T23:56:52.461Z,63.98
2019-05-30T23:59:21.236Z,63.66
